Time;durP1;ratioP1;P1;durP2;ratioP2;P2;SDS_P1;SDS_P2;PMS_P1;PMS_P2;Temp;Humidity;BMP_temperature;BMP_pressure;BME280_temperature;BME280_humidity;BME280_pressure;Samples;Min_cycle;Max_cycle;Signal;HPM_P1;HPM_P2
2021/11/19 00:02:00;;;;;;;18.27;13.63;;;;;;;5.98;81.29;101925.16;5076280;28;20535;-90
2021/11/19 00:04:27;;;;;;;23.95;13.98;;;;;;;5.99;81.65;101926.84;5094899;28;20884;-90
2021/11/19 00:06:54;;;;;;;21.60;13.65;;;;;;;5.97;81.50;101923.47;5094583;28;20485;-90
2021/11/19 00:09:20;;;;;;;22.02;13.68;;;;;;;5.96;81.64;101927.19;5094360;28;20434;-90
2021/11/19 00:11:47;;;;;;;20.42;14.27;;;;;;;5.95;81.52;101928.19;5094363;28;20451;-90
2021/11/19 00:14:14;;;;;;;24.75;14.38;;;;;;;5.94;81.38;101937.28;5094305;28;20398;-90
2021/11/19 00:16:42;;;;;;;27.38;15.38;;;;;;;5.92;81.34;101932.09;5094290;28;20744;-89
2021/11/19 00:19:09;;;;;;;22.70;14.70;;;;;;;5.93;81.59;101941.81;5094037;28;20744;-90
2021/11/19 00:21:36;;;;;;;20.10;12.83;;;;;;;5.90;81.24;101935.94;5076339;28;20513;-89
2021/11/19 00:24:02;;;;;;;27.30;16.00;;;;;;;5.87;81.55;101939.84;5093876;28;20445;-90
2021/11/19 00:26:28;;;;;;;23.05;14.27;;;;;;;5.86;81.70;101948.91;5094214;28;20428;-90
2021/11/19 00:28:54;;;;;;;23.73;14.73;;;;;;;5.86;81.63;101953.50;5093895;28;20845;-90
2021/11/19 00:31:20;;;;;;;26.75;14.98;;;;;;;5.87;81.78;101958.69;5094273;28;20422;-91
2021/11/19 00:33:46;;;;;;;25.30;15.30;;;;;;;5.89;81.77;101950.44;5094294;28;20916;-89
2021/11/19 00:36:15;;;;;;;26.40;15.83;;;;;;;5.94;81.77;101948.03;5093562;28;20402;-90
2021/11/19 00:38:41;;;;;;;25.20;15.53;;;;;;;5.99;81.66;101951.91;5094117;28;20414;-89
2021/11/19 00:41:08;;;;;;;23.00;15.02;;;;;;;6.05;81.67;101945.78;5093583;28;20944;-90
2021/11/19 00:43:35;;;;;;;24.02;14.95;;;;;;;6.13;81.53;101948.41;5094123;28;20908;-90
2021/11/19 00:46:00;;;;;;;22.67;14.80;;;;;;;6.18;81.58;101954.09;5075367;28;20406;-90
2021/11/19 00:48:27;;;;;;;23.53;15.73;;;;;;;6.26;81.15;101951.31;5094052;28;20398;-90
2021/11/19 00:50:56;;;;;;;23.17;14.47;;;;;;;6.35;80.84;101943.19;5092507;28;20398;-90
2021/11/19 00:53:21;;;;;;;24.23;14.98;;;;;;;6.38;81.04;101948.22;5093766;28;20433;-90
2021/11/19 00:55:47;;;;;;;23.95;14.98;;;;;;;6.36;81.07;101939.47;5093372;28;20785;-90
2021/11/19 00:58:13;;;;;;;24.60;16.15;;;;;;;6.41;80.19;101947.84;5093867;28;20397;-90
2021/11/19 01:00:53;;;;;;;25.63;14.70;;;;;;;6.44;80.86;101948.34;5093337;28;20386;-90
2021/11/19 01:03:21;;;;;;;24.15;14.38;;;;;;;6.51;80.71;101943.06;5075486;28;20383;-89
2021/11/19 01:05:48;;;;;;;24.33;14.77;;;;;;;6.54;80.43;101946.22;5074852;28;20402;-89
2021/11/19 01:08:13;;;;;;;22.02;13.55;;;;;;;6.57;80.27;101947.72;5093163;28;20478;-89
2021/11/19 01:10:40;;;;;;;20.37;13.97;;;;;;;6.62;79.53;101956.06;5075171;28;20485;-89
2021/11/19 01:13:07;;;;;;;20.45;14.23;;;;;;;6.58;79.54;101954.78;5075230;28;20413;-90
2021/11/19 01:15:38;;;;;;;20.67;13.00;;;;;;;6.57;79.71;101958.47;5081923;28;20473;-90
2021/11/19 01:18:26;;;;;;;24.88;14.18;;;;;;;6.52;79.59;101953.63;5093337;28;20378;-90
2021/11/19 01:20:59;;;;;;;20.83;12.90;;;;;;;6.53;80.04;101958.00;5088860;28;20398;-90
2021/11/19 01:23:26;;;;;;;21.33;13.20;;;;;;;6.60;79.74;101956.25;5093001;28;20453;-90
2021/11/19 01:25:57;;;;;;;24.00;13.77;;;;;;;6.63;80.04;101958.59;5093090;28;20449;-90
2021/11/19 01:28:23;;;;;;;25.95;14.57;;;;;;;6.61;80.17;101959.81;5092948;28;20409;-90
2021/11/19 01:30:54;;;;;;;26.90;14.47;;;;;;;6.62;80.21;101965.00;5092778;28;20816;-90
2021/11/19 01:33:20;;;;;;;22.60;14.67;;;;;;;6.62;80.33;101970.38;5092850;28;20872;-90
2021/11/19 01:35:46;;;;;;;24.20;14.97;;;;;;;6.65;80.18;101964.63;5074279;28;20398;-90
2021/11/19 01:38:12;;;;;;;25.90;14.63;;;;;;;6.67;80.53;101969.84;5092772;28;20939;-90
2021/11/19 01:40:43;;;;;;;29.40;15.98;;;;;;;6.67;80.18;101967.16;5073516;28;20390;-90
2021/11/19 01:43:11;;;;;;;27.88;15.93;;;;;;;6.72;80.01;101964.72;5092618;28;20382;-90
2021/11/19 01:45:45;;;;;;;25.20;15.80;;;;;;;6.74;79.85;101968.94;5074063;28;20564;-89
2021/11/19 01:48:14;;;;;;;26.58;14.50;;;;;;;6.77;80.53;101965.03;5092852;28;20389;-90
2021/11/19 01:51:04;;;;;;;30.48;17.25;;;;;;;6.78;80.12;101970.22;5081143;28;20431;-91
2021/11/19 01:53:48;;;;;;;27.58;16.77;;;;;;;6.74;80.20;101974.31;5081828;28;20477;-90
2021/11/19 01:56:39;;;;;;;26.90;14.93;;;;;;;6.75;80.49;101967.09;5092385;28;20440;-90
2021/11/19 01:59:35;;;;;;;28.15;16.63;;;;;;;6.80;80.52;101970.06;5065026;28;20869;-90
2021/11/19 02:02:09;;;;;;;28.13;15.75;;;;;;;6.80;80.31;101964.66;5083939;28;20888;-90
2021/11/19 02:04:48;;;;;;;30.37;16.37;;;;;;;6.79;80.25;101976.44;5074309;28;20782;-91
2021/11/19 02:07:21;;;;;;;26.48;15.82;;;;;;;6.77;80.55;101965.88;5073959;28;20414;-91
2021/11/19 02:09:54;;;;;;;30.63;16.83;;;;;;;6.76;80.99;101960.66;5092103;28;20396;-91
2021/11/19 02:12:37;;;;;;;26.92;16.63;;;;;;;6.76;81.10;101966.88;5091489;28;20402;-89
2021/11/19 02:15:16;;;;;;;30.42;15.75;;;;;;;6.74;81.15;101957.31;5085619;28;20734;-91
2021/11/19 02:17:47;;;;;;;31.00;16.33;;;;;;;6.77;81.12;101959.63;5083218;28;20398;-90
2021/11/19 02:20:18;;;;;;;28.77;15.70;;;;;;;6.79;80.76;101955.72;5073857;28;20459;-90
2021/11/19 02:22:48;;;;;;;32.20;17.27;;;;;;;6.84;80.62;101957.06;5075823;28;20410;-90
2021/11/19 02:25:26;;;;;;;28.42;16.38;;;;;;;6.80;81.09;101961.97;5073360;28;20421;-90
2021/11/19 02:27:55;;;;;;;29.38;18.13;;;;;;;6.84;81.07;101954.34;5091571;28;20394;-90
2021/11/19 02:30:26;;;;;;;33.80;17.88;;;;;;;6.87;81.06;101952.13;5079968;28;20395;-91
2021/11/19 02:32:58;;;;;;;33.63;18.13;;;;;;;6.86;80.77;101942.38;5073471;28;20382;-91
2021/11/19 02:35:28;;;;;;;33.20;17.47;;;;;;;6.87;81.24;101945.91;5091769;28;20378;-90
2021/11/19 02:37:58;;;;;;;37.38;17.90;;;;;;;6.82;81.23;101943.75;5091792;28;20386;-91
2021/11/19 02:40:30;;;;;;;35.40;17.83;;;;;;;6.83;81.45;101939.19;5087454;28;20413;-90
2021/11/19 02:43:03;;;;;;;34.22;17.88;;;;;;;6.87;80.87;101946.75;5091735;28;20386;-91
2021/11/19 02:45:40;;;;;;;32.65;18.33;;;;;;;6.88;80.96;101947.59;5091644;28;20382;-91
2021/11/19 02:48:07;;;;;;;27.60;17.10;;;;;;;6.87;81.12;101929.72;5091491;28;20817;-90
2021/11/19 02:50:35;;;;;;;32.47;17.40;;;;;;;6.90;81.16;101942.84;5088142;28;20382;-90
2021/11/19 02:53:01;;;;;;;30.40;16.58;;;;;;;6.87;81.33;101952.13;5094903;28;20393;-89
2021/11/19 02:55:34;;;;;;;28.77;16.08;;;;;;;6.83;81.52;101944.59;5077710;28;20402;-90
2021/11/19 02:58:01;;;;;;;28.13;16.65;;;;;;;6.85;80.97;101947.94;5095227;28;20489;-89
2021/11/19 03:00:32;;;;;;;33.20;18.40;;;;;;;6.84;81.13;101947.13;5095831;28;20460;-90
2021/11/19 03:02:57;;;;;;;32.33;16.50;;;;;;;6.88;81.45;101942.19;5077450;28;20394;-90
2021/11/19 03:05:26;;;;;;;32.57;17.73;;;;;;;6.89;81.29;101950.06;5095814;28;20800;-90
2021/11/19 03:07:51;;;;;;;30.63;15.93;;;;;;;6.91;80.99;101936.44;5077405;28;20880;-90
2021/11/19 03:10:25;;;;;;;24.90;15.57;;;;;;;6.94;80.81;101939.59;5077598;28;20382;-91
2021/11/19 03:12:51;;;;;;;24.13;14.90;;;;;;;6.96;80.57;101945.63;5095525;28;20454;-89
2021/11/19 03:15:24;;;;;;;28.33;14.85;;;;;;;6.93;81.04;101945.16;5095090;28;20923;-90
2021/11/19 03:17:49;;;;;;;23.83;14.98;;;;;;;6.96;81.27;101947.47;5061784;28;20393;-89
2021/11/19 03:20:17;;;;;;;27.40;14.65;;;;;;;6.96;81.38;101940.22;5095334;28;20420;-89
2021/11/19 03:22:43;;;;;;;27.60;15.63;;;;;;;6.95;81.08;101940.44;5095019;28;20421;-91
2021/11/19 03:25:12;;;;;;;27.75;15.57;;;;;;;6.93;81.17;101948.69;5095510;28;20382;-90
2021/11/19 03:27:39;;;;;;;22.03;14.30;;;;;;;6.95;81.31;101951.22;5079658;28;20482;-91
2021/11/19 03:30:07;;;;;;;29.23;15.43;;;;;;;6.98;81.48;101956.22;5095218;28;20476;-90
2021/11/19 03:32:33;;;;;;;26.00;15.45;;;;;;;7.00;81.03;101952.31;5094930;28;20860;-90
2021/11/19 03:34:59;;;;;;;24.10;14.70;;;;;;;7.03;80.75;101948.41;5095312;28;20424;-90
2021/11/19 03:37:24;;;;;;;23.58;14.95;;;;;;;7.04;80.80;101947.41;5095242;28;20394;-89
2021/11/19 03:39:50;;;;;;;27.30;16.00;;;;;;;7.03;80.81;101949.25;5094705;28;20492;-90
2021/11/19 03:42:18;;;;;;;33.13;17.87;;;;;;;7.04;80.73;101947.41;5094964;28;20882;-88
2021/11/19 03:44:49;;;;;;;29.85;16.55;;;;;;;7.00;80.57;101946.94;5094853;28;20458;-90
2021/11/19 03:47:30;;;;;;;27.85;15.68;;;;;;;7.04;81.37;101952.78;5078488;28;20504;-90
2021/11/19 03:49:57;;;;;;;32.97;17.10;;;;;;;7.04;80.95;101959.03;5089495;28;20403;-90
2021/11/19 03:52:31;;;;;;;33.63;16.98;;;;;;;7.04;81.25;101960.88;5088526;28;20386;-90
2021/11/19 03:55:00;;;;;;;31.98;17.45;;;;;;;7.01;81.31;101951.31;5094688;28;20394;-90
2021/11/19 03:57:26;;;;;;;27.95;15.85;;;;;;;7.00;81.54;101952.31;5094619;28;20378;-90
2021/11/19 03:59:53;;;;;;;24.37;15.10;;;;;;;6.97;81.62;101950.00;5094784;28;20398;-91
2021/11/19 04:02:20;;;;;;;28.73;15.88;;;;;;;6.98;81.64;101950.84;5076543;28;20727;-90
2021/11/19 04:04:46;;;;;;;26.77;14.93;;;;;;;7.00;81.28;101957.72;5075607;28;20383;-89
2021/11/19 04:07:14;;;;;;;31.45;15.95;;;;;;;7.02;81.51;101952.13;5094365;28;20414;-90
2021/11/19 04:09:40;;;;;;;29.13;16.20;;;;;;;7.02;81.11;101952.13;5094214;28;20797;-90
2021/11/19 04:12:06;;;;;;;26.23;16.63;;;;;;;7.04;81.41;101958.19;5094499;28;20374;-90
2021/11/19 04:14:33;;;;;;;27.05;16.38;;;;;;;7.01;81.26;101970.19;5094677;28;20386;-90
2021/11/19 04:16:59;;;;;;;26.50;15.52;;;;;;;7.02;80.99;101962.91;5094084;28;20459;-90
2021/11/19 04:19:29;;;;;;;30.40;16.00;;;;;;;7.05;81.29;101966.06;5094347;28;20493;-90
2021/11/19 04:22:03;;;;;;;26.10;16.00;;;;;;;7.06;81.62;101964.22;5094229;28;20418;-89
2021/11/19 04:24:45;;;;;;;29.20;15.48;;;;;;;7.07;81.11;101964.03;5076784;28;20765;-89
2021/11/19 04:27:11;;;;;;;28.00;16.52;;;;;;;7.04;81.26;101961.72;5094134;28;20409;-90
2021/11/19 04:29:37;;;;;;;28.38;15.82;;;;;;;7.04;81.51;101958.19;5093815;28;20386;-90
2021/11/19 04:32:03;;;;;;;25.05;14.55;;;;;;;7.07;81.37;101955.97;5094118;28;20469;-90
2021/11/19 04:34:29;;;;;;;24.08;15.23;;;;;;;7.10;81.48;101957.44;5094055;28;20382;-90
2021/11/19 04:36:55;;;;;;;28.23;15.25;;;;;;;7.11;80.93;101959.94;5093939;28;20848;-90
2021/11/19 04:39:20;;;;;;;22.40;15.40;;;;;;;7.11;80.96;101953.72;5074899;28;20761;-90
2021/11/19 04:41:46;;;;;;;26.03;14.83;;;;;;;7.10;81.20;101952.03;5075969;28;20421;-90
2021/11/19 04:44:12;;;;;;;27.00;15.00;;;;;;;7.13;81.33;101957.91;5093841;28;20486;-90
2021/11/19 04:46:38;;;;;;;28.20;15.57;;;;;;;7.13;80.75;101962.47;5094060;28;20402;-90
2021/11/19 04:49:04;;;;;;;26.88;16.10;;;;;;;7.11;81.18;101962.63;5093540;28;20406;-90
2021/11/19 04:51:32;;;;;;;28.23;15.93;;;;;;;7.13;81.25;101970.53;5093625;28;20439;-89
2021/11/19 04:53:58;;;;;;;27.75;15.73;;;;;;;7.13;81.24;101963.28;5093514;28;20397;-89
2021/11/19 04:56:24;;;;;;;25.67;14.93;;;;;;;7.14;81.54;101958.75;5093769;28;20378;-90
2021/11/19 04:58:50;;;;;;;28.00;15.43;;;;;;;7.16;81.01;101960.22;5093390;28;20401;-90
2021/11/19 05:01:22;;;;;;;28.02;14.77;;;;;;;7.17;81.38;101961.91;5075059;28;20390;-90
2021/11/19 05:03:47;;;;;;;26.08;15.25;;;;;;;7.16;81.50;101957.53;5093202;28;20844;-90
2021/11/19 05:06:13;;;;;;;24.63;14.47;;;;;;;7.18;80.98;101951.94;5074180;28;20405;-85
2021/11/19 05:08:38;;;;;;;27.37;13.57;;;;;;;7.17;81.34;101942.19;5092949;28;20402;-90
2021/11/19 05:11:06;;;;;;;21.73;12.90;;;;;;;7.14;80.91;101939.88;5093459;28;20393;-89
2021/11/19 05:13:36;;;;;;;23.85;12.82;;;;;;;7.19;81.32;101934.75;5074940;28;20734;-90
2021/11/19 05:16:05;;;;;;;21.00;13.05;;;;;;;7.15;80.97;101934.28;5092689;28;20402;-89
2021/11/19 05:18:31;;;;;;;23.17;13.05;;;;;;;7.16;81.06;101929.72;5075307;28;20386;-90
2021/11/19 05:20:57;;;;;;;26.10;14.03;;;;;;;7.12;81.13;101933.81;5092389;28;20401;-89
2021/11/19 05:23:24;;;;;;;22.88;12.27;;;;;;;7.10;81.35;101928.63;5085532;28;20432;-89
2021/11/19 05:25:50;;;;;;;20.50;12.55;;;;;;;7.15;81.50;101930.75;5088291;28;20508;-92
2021/11/19 05:28:18;;;;;;;28.45;14.50;;;;;;;7.13;81.46;101933.63;5092801;28;20473;-90
2021/11/19 05:30:44;;;;;;;19.83;13.38;;;;;;;7.15;81.68;101931.59;5092340;28;20393;-89
2021/11/19 05:33:15;;;;;;;23.88;14.18;;;;;;;7.15;81.19;101936.97;5092533;28;20880;-90
2021/11/19 05:35:40;;;;;;;28.02;16.58;;;;;;;7.17;81.09;101939.50;5092545;28;20401;-89
2021/11/19 05:38:06;;;;;;;27.95;15.15;;;;;;;7.19;81.67;101940.97;5072825;28;20901;-89
2021/11/19 05:40:32;;;;;;;22.48;13.25;;;;;;;7.19;81.02;101932.88;5091319;28;20405;-88
2021/11/19 05:42:58;;;;;;;25.10;14.65;;;;;;;7.21;80.82;101938.91;5086491;28;20406;-90
2021/11/19 05:45:26;;;;;;;28.13;14.67;;;;;;;7.22;80.82;101927.13;5091931;28;20851;-84
2021/11/19 05:47:52;;;;;;;24.58;14.77;;;;;;;7.22;80.85;101942.47;5092908;28;20497;-91
2021/11/19 05:50:20;;;;;;;25.90;15.15;;;;;;;7.22;81.30;101937.06;5082828;28;20833;-90
2021/11/19 05:52:46;;;;;;;31.87;15.43;;;;;;;7.19;81.13;101937.44;5089405;28;20483;-91
2021/11/19 05:55:15;;;;;;;27.40;15.60;;;;;;;7.18;81.43;101947.38;5092160;28;20484;-89
2021/11/19 05:57:41;;;;;;;54.20;30.42;;;;;;;7.18;81.82;101942.00;5081847;28;20832;-85
2021/11/19 06:00:20;;;;;;;28.63;17.47;;;;;;;7.25;81.10;101936.69;5090526;28;20481;-89
2021/11/19 06:02:47;;;;;;;26.80;14.85;;;;;;;7.26;80.78;101928.44;5065663;28;20448;-90
2021/11/19 06:05:13;;;;;;;30.02;15.40;;;;;;;7.21;81.11;101944.31;5088311;28;20386;-89
2021/11/19 06:07:39;;;;;;;28.80;15.03;;;;;;;7.20;81.37;101945.34;5092294;28;20433;-89
2021/11/19 06:10:06;;;;;;;27.03;15.37;;;;;;;7.19;81.34;101949.06;5084944;28;20403;-89
2021/11/19 06:12:38;;;;;;;37.67;16.77;;;;;;;7.20;80.98;101948.06;5090465;28;20378;-88
2021/11/19 06:15:10;;;;;;;26.48;15.25;;;;;;;7.21;81.41;101951.59;5067876;28;20398;-89
2021/11/19 06:17:38;;;;;;;28.58;16.55;;;;;;;7.19;81.06;101950.91;5091693;28;20401;-91
2021/11/19 06:20:24;;;;;;;24.77;13.65;;;;;;;7.19;80.85;101959.84;5092753;28;20443;-92
2021/11/19 06:22:53;;;;;;;28.60;14.93;;;;;;;7.19;81.56;101967.94;5059144;28;20455;-88
2021/11/19 06:25:23;;;;;;;24.98;14.90;;;;;;;7.21;81.33;101965.88;5091922;28;20439;-87
2021/11/19 06:27:51;;;;;;;24.75;14.93;;;;;;;7.20;80.82;101966.94;5091422;28;20410;-89
2021/11/19 06:30:18;;;;;;;24.45;14.93;;;;;;;7.23;81.04;101971.09;5072630;28;20753;-88
2021/11/19 06:32:43;;;;;;;32.63;19.85;;;;;;;7.23;81.31;101980.03;5087680;28;20405;-90
2021/11/19 06:35:10;;;;;;;35.07;20.20;;;;;;;7.20;81.14;101976.88;5063991;28;20400;-89
2021/11/19 06:37:36;;;;;;;27.83;18.02;;;;;;;7.18;82.02;101977.03;5085442;28;20477;-89
2021/11/19 06:40:03;;;;;;;25.27;15.50;;;;;;;7.22;81.75;101983.75;5091016;28;20418;-89
2021/11/19 06:42:29;;;;;;;27.77;15.00;;;;;;;7.26;81.02;101986.91;5090464;28;20397;-88
2021/11/19 06:45:11;;;;;;;27.33;14.87;;;;;;;7.29;81.39;101986.53;5096289;28;20430;-89
2021/11/19 06:47:37;;;;;;;29.17;15.33;;;;;;;7.29;81.25;101978.44;5072779;28;20437;-89
2021/11/19 06:50:04;;;;;;;25.53;14.73;;;;;;;7.29;80.59;101981.97;5069593;28;20471;-89
2021/11/19 06:52:29;;;;;;;31.38;16.73;;;;;;;7.30;80.85;101989.06;5090578;28;20804;-89
2021/11/19 06:54:55;;;;;;;32.27;17.93;;;;;;;7.28;81.07;101987.53;5073885;28;20475;-89
2021/11/19 06:57:20;;;;;;;31.87;15.97;;;;;;;7.30;80.83;101986.38;5091465;28;20459;-89
2021/11/19 06:59:45;;;;;;;27.33;15.67;;;;;;;7.31;80.75;101981.78;5075720;28;20831;-90
2021/11/19 07:02:12;;;;;;;28.47;14.30;;;;;;;7.35;80.37;101993.03;5088381;28;20459;-88
2021/11/19 07:04:38;;;;;;;29.57;16.03;;;;;;;7.35;79.99;101998.44;5090687;28;20393;-87
2021/11/19 07:07:07;;;;;;;29.53;16.23;;;;;;;7.36;80.47;102003.66;5088209;28;20409;-89
2021/11/19 07:09:32;;;;;;;27.10;16.57;;;;;;;7.39;80.86;102014.06;5089608;28;20394;-90
2021/11/19 07:12:00;;;;;;;30.35;15.75;;;;;;;7.39;80.30;102002.44;5072943;28;20420;-92
2021/11/19 07:14:25;;;;;;;32.22;16.65;;;;;;;7.32;80.29;101996.94;5091620;28;20403;-89
2021/11/19 07:16:50;;;;;;;28.63;16.98;;;;;;;7.32;80.66;101994.25;5092024;28;20439;-86
2021/11/19 07:19:16;;;;;;;31.03;17.20;;;;;;;7.34;80.17;101994.06;5091391;28;20787;-88
2021/11/19 07:21:42;;;;;;;28.40;17.20;;;;;;;7.40;80.28;101999.56;5078167;28;20903;-89
2021/11/19 07:24:08;;;;;;;30.53;16.77;;;;;;;7.40;80.59;101999.56;5084622;28;20426;-88
2021/11/19 07:26:34;;;;;;;33.00;17.30;;;;;;;7.42;80.46;101999.34;5090599;28;20900;-87
2021/11/19 07:29:00;;;;;;;32.75;17.33;;;;;;;7.42;80.07;101997.50;5083264;28;20392;-89
2021/11/19 07:31:26;;;;;;;30.33;16.83;;;;;;;7.45;80.46;102005.22;5090627;28;20393;-89
2021/11/19 07:33:52;;;;;;;31.45;16.75;;;;;;;7.48;80.51;102017.47;5089324;28;20397;-92
2021/11/19 07:36:21;;;;;;;28.45;16.13;;;;;;;7.53;80.69;102009.69;5091624;28;20393;-91
2021/11/19 07:38:47;;;;;;;28.38;16.35;;;;;;;7.55;80.20;102004.94;5093657;28;20382;-92
2021/11/19 07:41:15;;;;;;;27.60;15.80;;;;;;;7.57;79.90;102008.28;5094978;28;20877;-89
2021/11/19 07:43:41;;;;;;;27.38;15.57;;;;;;;7.59;80.35;102011.63;5095630;28;20718;-92
2021/11/19 07:46:08;;;;;;;26.83;15.10;;;;;;;7.59;80.21;102007.06;5094235;28;20446;-90
2021/11/19 07:48:36;;;;;;;27.90;15.53;;;;;;;7.63;79.69;102008.38;5086680;28;20495;-91
2021/11/19 07:51:12;;;;;;;29.23;15.93;;;;;;;7.65;79.75;102014.41;5095670;28;20406;-91
2021/11/19 07:53:37;;;;;;;26.00;15.50;;;;;;;7.70;79.77;102021.97;5096540;28;20421;-95
2021/11/19 07:56:05;;;;;;;25.00;15.63;;;;;;;7.70;79.32;102020.09;5094901;28;20892;-90
2021/11/19 07:58:30;;;;;;;26.83;14.55;;;;;;;7.72;79.16;102014.50;5092518;28;20434;-88
2021/11/19 08:00:57;;;;;;;26.67;14.35;;;;;;;7.75;79.45;102011.41;5090507;28;20386;-89
2021/11/19 08:03:23;;;;;;;26.48;15.35;;;;;;;7.78;78.86;102016.44;5094477;28;20385;-89
2021/11/19 08:05:52;;;;;;;25.47;14.67;;;;;;;7.84;78.76;102021.06;5072284;28;20528;-89
2021/11/19 08:08:18;;;;;;;27.30;14.55;;;;;;;7.86;79.15;102020.91;5089420;28;20397;-89
2021/11/19 08:10:44;;;;;;;22.40;13.95;;;;;;;7.89;78.35;102015.97;5094266;28;20389;-89
2021/11/19 08:13:10;;;;;;;25.77;14.85;;;;;;;7.91;78.23;102013.06;5094123;28;20737;-89
2021/11/19 08:15:36;;;;;;;25.92;16.13;;;;;;;7.87;78.23;102012.59;5093980;28;20378;-89
2021/11/19 08:18:03;;;;;;;29.02;15.60;;;;;;;7.86;78.44;102018.19;5082832;28;20399;-89
2021/11/19 08:20:37;;;;;;;30.55;15.45;;;;;;;7.85;78.36;102017.34;5058396;28;20393;-88
2021/11/19 08:23:12;;;;;;;32.10;16.65;;;;;;;7.97;78.74;102015.84;5093897;28;20402;-89
2021/11/19 08:25:38;;;;;;;29.65;16.10;;;;;;;8.06;77.96;102014.72;5068225;28;20410;-89
2021/11/19 08:28:05;;;;;;;31.98;17.45;;;;;;;8.13;78.04;102012.09;5082040;28;20406;-90
2021/11/19 08:30:34;;;;;;;27.73;16.60;;;;;;;8.19;77.75;102017.56;5086987;28;20413;-89
2021/11/19 08:33:02;;;;;;;27.13;15.70;;;;;;;8.18;77.44;102015.88;5084361;28;20484;-90
2021/11/19 08:35:28;;;;;;;34.03;15.77;;;;;;;8.20;77.88;102019.22;5082070;28;20404;-89
2021/11/19 08:37:54;;;;;;;24.23;15.27;;;;;;;8.21;77.46;102020.91;5044629;28;20449;-88
2021/11/19 08:40:21;;;;;;;21.90;14.85;;;;;;;8.16;77.05;102020.66;5083692;28;20569;-89
2021/11/19 08:42:47;;;;;;;29.52;15.80;;;;;;;8.18;77.48;102021.28;5093210;28;20394;-90
2021/11/19 08:45:17;;;;;;;26.07;15.83;;;;;;;8.19;77.83;102028.38;5073942;28;20490;-89
2021/11/19 08:47:44;;;;;;;24.65;15.05;;;;;;;8.19;77.53;102033.75;5093936;28;20413;-89
2021/11/19 08:50:10;;;;;;;27.05;14.70;;;;;;;8.23;77.34;102039.63;5093063;28;20463;-89
2021/11/19 08:52:36;;;;;;;27.00;14.10;;;;;;;8.25;77.65;102043.81;5072811;28;20405;-90
2021/11/19 08:55:04;;;;;;;29.57;15.87;;;;;;;8.32;77.39;102046.59;5080782;28;20801;-89
2021/11/19 08:57:32;;;;;;;26.58;15.52;;;;;;;8.36;76.81;102047.91;5088005;28;20794;-90
2021/11/19 08:59:57;;;;;;;23.48;14.90;;;;;;;8.39;76.79;102049.38;5084676;28;20398;-89
2021/11/19 09:02:24;;;;;;;21.93;14.63;;;;;;;8.43;76.82;102047.97;5080829;28;20463;-89
2021/11/19 09:04:50;;;;;;;22.83;15.50;;;;;;;8.49;76.44;102044.50;5078982;28;20420;-89
2021/11/19 09:07:16;;;;;;;27.25;14.00;;;;;;;8.56;76.73;102050.81;5087180;28;20877;-88
2021/11/19 09:09:44;;;;;;;24.27;14.63;;;;;;;8.58;75.97;102048.72;5062721;28;20442;-88
2021/11/19 09:12:10;;;;;;;25.80;15.50;;;;;;;8.61;75.94;102042.94;5088936;28;20901;-89
2021/11/19 09:14:36;;;;;;;24.55;15.27;;;;;;;8.66;76.00;102040.50;5069788;28;20413;-89
2021/11/19 09:21:10;;;;;;;23.37;14.33;;;;;;;8.78;75.36;102041.66;5001875;28;20451;-88
2021/11/19 09:23:42;;;;;;;20.60;14.63;;;;;;;8.79;75.20;102032.53;5000840;28;20459;-89
2021/11/19 09:26:32;;;;;;;25.77;14.40;;;;;;;8.79;74.75;102033.31;5085195;28;20823;-88
2021/11/19 09:29:34;;;;;;;24.08;15.23;;;;;;;8.86;74.15;102036.09;5084589;28;20414;-89
2021/11/19 09:32:00;;;;;;;22.70;13.48;;;;;;;8.89;74.04;102032.19;5080422;28;20408;-91
2021/11/19 09:34:27;;;;;;;25.45;14.15;;;;;;;8.95;73.56;102029.53;5079393;28;21640;-90
2021/11/19 09:36:53;;;;;;;27.55;12.95;;;;;;;8.97;73.21;102029.31;5083146;28;20405;-88
2021/11/19 09:39:26;;;;;;;24.55;13.80;;;;;;;8.93;73.73;102036.13;5091138;28;20426;-90
2021/11/19 09:42:38;;;;;;;21.52;13.45;;;;;;;8.95;74.13;102034.94;5082786;28;20413;-89
2021/11/19 09:45:53;;;;;;;25.15;12.77;;;;;;;8.99;74.34;102036.19;5083283;28;20444;-85
2021/11/19 09:52:35;;;;;;;;;;;;;;;;;;;;;
2021/11/19 09:59:25;;;;;;;;;;;;;;;;;;;;;
2021/11/19 10:02:30;;;;;;;18.17;11.80;;;;;;;9.13;74.13;102046.09;5018655;28;22091;-91
2021/11/19 10:05:35;;;;;;;21.67;12.20;;;;;;;9.16;73.90;102048.41;5023444;28;20407;-90
2021/11/19 10:08:59;;;;;;;15.95;10.85;;;;;;;9.11;73.63;102041.91;5012798;28;20422;-90
2021/11/19 10:12:13;;;;;;;18.73;11.57;;;;;;;9.14;73.61;102046.94;5082150;28;20497;-91
2021/11/19 10:14:42;;;;;;;20.52;11.70;;;;;;;9.17;72.85;102043.81;5081364;28;20401;-87
2021/11/19 10:18:08;;;;;;;21.48;12.52;;;;;;;9.20;73.34;102044.28;5080064;28;20903;-90
2021/11/19 10:20:58;;;;;;;26.73;13.10;;;;;;;9.14;73.73;102046.94;5004586;28;20531;-89
2021/11/19 10:23:34;;;;;;;20.63;12.48;;;;;;;9.04;73.95;102044.56;4998278;28;20481;-90
2021/11/19 10:36:40;;;;;;;20.13;11.45;;;;;;;9.21;72.44;102028.88;4939689;28;20578;-91
2021/11/19 10:39:41;;;;;;;18.73;11.38;;;;;;;9.18;72.93;102022.00;4996088;28;20461;-91
2021/11/19 10:49:48;;;;;;;17.50;11.30;;;;;;;9.28;72.94;102017.06;5027417;28;20815;-90
2021/11/19 10:56:29;;;;;;;19.93;12.60;;;;;;;9.28;72.02;102011.66;4962534;28;20447;-90
2021/11/19 10:59:38;;;;;;;25.90;16.03;;;;;;;9.29;72.55;102004.34;4957528;28;20494;-90
2021/11/19 11:02:51;;;;;;;26.08;16.63;;;;;;;9.35;72.44;102009.81;4981412;28;20418;-89
2021/11/19 11:15:17;;;;;;;16.45;10.52;;;;;;;9.53;72.31;101989.50;4990007;28;20532;-91
2021/11/19 11:18:38;;;;;;;17.30;11.20;;;;;;;9.49;72.61;101982.81;5060740;28;20459;-89
2021/11/19 11:21:49;;;;;;;19.58;11.77;;;;;;;9.49;72.97;101980.97;5060636;28;20967;-88
2021/11/19 11:24:22;;;;;;;16.27;10.63;;;;;;;9.53;73.09;101973.28;5084259;28;20495;-90
2021/11/19 11:27:35;;;;;;;60.17;22.05;;;;;;;9.58;72.80;101971.63;5084420;28;20915;-91
2021/11/19 11:30:52;;;;;;;55.72;22.05;;;;;;;9.57;72.82;101964.56;5084568;28;20397;-91
2021/11/19 11:33:30;;;;;;;20.15;12.40;;;;;;;9.50;73.08;101971.81;5058214;28;20460;-91
2021/11/19 11:36:19;;;;;;;14.63;9.40;;;;;;;9.53;72.94;101965.16;5078940;28;20887;-89
2021/11/19 11:39:03;;;;;;;17.38;10.25;;;;;;;9.57;72.99;101969.13;5085506;28;20434;-89
2021/11/19 11:41:51;;;;;;;16.37;9.37;;;;;;;9.59;72.54;101961.63;5060564;28;20775;-92
2021/11/19 11:45:13;;;;;;;12.13;7.60;;;;;;;9.64;72.56;101960.00;5085073;28;20418;-89
2021/11/19 11:47:57;;;;;;;12.38;7.45;;;;;;;9.59;73.00;101967.88;5092901;28;20421;-89
2021/11/19 11:50:40;;;;;;;12.82;7.72;;;;;;;9.64;72.45;101961.88;5088522;28;21265;-90
2021/11/19 11:53:12;;;;;;;12.80;7.67;;;;;;;9.68;72.81;101947.72;5086344;28;20977;-89
2021/11/19 11:55:44;;;;;;;12.27;7.35;;;;;;;9.59;72.68;101948.09;5066024;28;20479;-89
2021/11/19 11:58:29;;;;;;;10.80;7.03;;;;;;;9.63;72.48;101935.84;5087376;28;20834;-87
2021/11/19 12:01:09;;;;;;;12.27;6.75;;;;;;;9.66;73.10;101938.97;5082084;28;20408;-88
2021/11/19 12:03:45;;;;;;;12.00;6.88;;;;;;;9.72;73.07;101950.84;5082970;28;20421;-90
2021/11/19 12:06:22;;;;;;;13.02;7.07;;;;;;;9.70;72.86;101945.66;5092952;28;20461;-90
2021/11/19 12:09:12;;;;;;;12.83;7.37;;;;;;;9.71;72.78;101939.22;5063212;28;20409;-90
2021/11/19 12:12:03;;;;;;;12.15;7.40;;;;;;;9.69;73.31;101941.28;5084532;28;20474;-90
2021/11/19 12:14:37;;;;;;;9.75;6.63;;;;;;;9.72;72.63;101942.75;5061727;28;20522;-90
2021/11/19 12:17:37;;;;;;;8.27;5.97;;;;;;;9.66;72.89;101943.56;5061975;28;20398;-90
2021/11/19 12:20:24;;;;;;;9.60;6.90;;;;;;;9.66;73.16;101938.97;5080553;28;20406;-87
2021/11/19 12:23:22;;;;;;;10.93;6.22;;;;;;;9.66;73.04;101932.72;5080122;28;20408;-87
2021/11/19 12:26:15;;;;;;;9.10;6.40;;;;;;;9.56;73.20;101933.13;5084957;28;20429;-89
2021/11/19 12:28:43;;;;;;;7.90;5.88;;;;;;;9.54;73.59;101935.19;5079000;28;20438;-90